sensor_id;sensor_type;location;lat;lon;timestamp;pressure;altitude;pressure_sealevel;temperature;humidity
75536;BME280;64119;52.070;20.804;2023-02-17T00:01:30;100765.67;;;4.29;83.18
75536;BME280;64119;52.070;20.804;2023-02-17T00:03:58;100763.05;;;4.29;83.29
75536;BME280;64119;52.070;20.804;2023-02-17T00:06:28;100757.68;;;4.30;83.20
75536;BME280;64119;52.070;20.804;2023-02-17T00:08:56;100757.85;;;4.30;83.11
75536;BME280;64119;52.070;20.804;2023-02-17T00:11:26;100753.96;;;4.30;83.16
75536;BME280;64119;52.070;20.804;2023-02-17T00:13:55;100748.45;;;4.31;83.14
75536;BME280;64119;52.070;20.804;2023-02-17T00:16:25;100750.09;;;4.33;82.80
75536;BME280;64119;52.070;20.804;2023-02-17T00:18:58;100749.23;;;4.32;82.90
75536;BME280;64119;52.070;20.804;2023-02-17T00:21:29;100747.88;;;4.32;83.00
75536;BME280;64119;52.070;20.804;2023-02-17T00:23:58;100744.83;;;4.31;83.00
75536;BME280;64119;52.070;20.804;2023-02-17T00:26:26;100744.24;;;4.31;82.91
75536;BME280;64119;52.070;20.804;2023-02-17T00:28:54;100744.52;;;4.30;83.07
75536;BME280;64119;52.070;20.804;2023-02-17T00:31:22;100741.92;;;4.30;83.05
75536;BME280;64119;52.070;20.804;2023-02-17T00:33:54;100739.05;;;4.29;83.07
75536;BME280;64119;52.070;20.804;2023-02-17T00:36:24;100740.38;;;4.28;83.13
75536;BME280;64119;52.070;20.804;2023-02-17T00:38:54;100738.81;;;4.28;83.16
75536;BME280;64119;52.070;20.804;2023-02-17T00:41:23;100735.48;;;4.28;83.06
75536;BME280;64119;52.070;20.804;2023-02-17T00:43:51;100734.18;;;4.28;83.47
75536;BME280;64119;52.070;20.804;2023-02-17T00:46:21;100734.52;;;4.29;83.05
75536;BME280;64119;52.070;20.804;2023-02-17T00:48:52;100731.31;;;4.29;82.93
75536;BME280;64119;52.070;20.804;2023-02-17T00:51:20;100730.73;;;4.29;82.99
75536;BME280;64119;52.070;20.804;2023-02-17T00:53:48;100729.95;;;4.30;83.09
75536;BME280;64119;52.070;20.804;2023-02-17T00:56:16;100726.56;;;4.33;83.00
75536;BME280;64119;52.070;20.804;2023-02-17T00:58:44;100719.81;;;4.34;82.78
75536;BME280;64119;52.070;20.804;2023-02-17T01:01:12;100721.05;;;4.36;82.92
75536;BME280;64119;52.070;20.804;2023-02-17T01:03:41;100720.37;;;4.38;82.75
75536;BME280;64119;52.070;20.804;2023-02-17T01:06:17;100715.16;;;4.39;82.60
75536;BME280;64119;52.070;20.804;2023-02-17T01:08:48;100714.72;;;4.40;82.45
75536;BME280;64119;52.070;20.804;2023-02-17T01:11:24;100708.35;;;4.41;82.72
75536;BME280;64119;52.070;20.804;2023-02-17T01:13:53;100707.71;;;4.42;82.76
75536;BME280;64119;52.070;20.804;2023-02-17T01:16:22;100708.49;;;4.43;82.72
75536;BME280;64119;52.070;20.804;2023-02-17T01:18:51;100705.14;;;4.43;82.69
75536;BME280;64119;52.070;20.804;2023-02-17T01:35:02;100685.81;;;4.50;82.73
75536;BME280;64119;52.070;20.804;2023-02-17T01:37:34;100674.95;;;4.50;82.71
75536;BME280;64119;52.070;20.804;2023-02-17T01:40:03;100674.45;;;4.51;82.57
75536;BME280;64119;52.070;20.804;2023-02-17T01:42:31;100675.36;;;4.53;82.53
75536;BME280;64119;52.070;20.804;2023-02-17T01:50:36;100671.00;;;4.56;82.53
75536;BME280;64119;52.070;20.804;2023-02-17T01:53:06;100670.55;;;4.55;82.44
75536;BME280;64119;52.070;20.804;2023-02-17T01:55:37;100675.37;;;4.56;82.53
75536;BME280;64119;52.070;20.804;2023-02-17T01:58:08;100673.48;;;4.56;82.77
75536;BME280;64119;52.070;20.804;2023-02-17T02:00:38;100674.98;;;4.56;82.56
75536;BME280;64119;52.070;20.804;2023-02-17T02:03:09;100667.98;;;4.58;82.41
75536;BME280;64119;52.070;20.804;2023-02-17T02:05:40;100663.91;;;4.59;82.46
75536;BME280;64119;52.070;20.804;2023-02-17T02:08:09;100664.85;;;4.60;82.37
75536;BME280;64119;52.070;20.804;2023-02-17T02:10:37;100666.77;;;4.62;82.02
75536;BME280;64119;52.070;20.804;2023-02-17T02:13:06;100662.23;;;4.60;82.01
75536;BME280;64119;52.070;20.804;2023-02-17T02:15:41;100659.42;;;4.62;81.98
75536;BME280;64119;52.070;20.804;2023-02-17T02:18:20;100663.05;;;4.61;81.92
75536;BME280;64119;52.070;20.804;2023-02-17T02:24:00;100660.10;;;4.58;82.09
75536;BME280;64119;52.070;20.804;2023-02-17T02:38:19;100651.80;;;4.52;81.97
75536;BME280;64119;52.070;20.804;2023-02-17T02:40:58;100646.45;;;4.51;81.87
75536;BME280;64119;52.070;20.804;2023-02-17T02:43:30;100647.56;;;4.50;82.06
75536;BME280;64119;52.070;20.804;2023-02-17T02:45:58;100641.38;;;4.49;82.16
75536;BME280;64119;52.070;20.804;2023-02-17T02:48:26;100643.13;;;4.47;81.93
75536;BME280;64119;52.070;20.804;2023-02-17T02:51:00;100643.07;;;4.46;82.17
75536;BME280;64119;52.070;20.804;2023-02-17T02:53:39;100644.34;;;4.45;81.97
75536;BME280;64119;52.070;20.804;2023-02-17T03:01:39;100636.88;;;4.47;82.00
75536;BME280;64119;52.070;20.804;2023-02-17T03:04:19;100638.08;;;4.49;82.00
75536;BME280;64119;52.070;20.804;2023-02-17T03:07:19;100635.23;;;4.49;82.00
75536;BME280;64119;52.070;20.804;2023-02-17T03:09:51;100636.85;;;4.53;81.92
75536;BME280;64119;52.070;20.804;2023-02-17T03:12:21;100633.10;;;4.53;81.97
75536;BME280;64119;52.070;20.804;2023-02-17T03:14:53;100634.16;;;4.57;82.13
75536;BME280;64119;52.070;20.804;2023-02-17T03:17:22;100628.00;;;4.57;82.09
75536;BME280;64119;52.070;20.804;2023-02-17T03:19:50;100626.59;;;4.57;82.08
75536;BME280;64119;52.070;20.804;2023-02-17T03:22:21;100640.44;;;4.59;82.43
75536;BME280;64119;52.070;20.804;2023-02-17T03:24:49;100640.14;;;4.56;82.82
75536;BME280;64119;52.070;20.804;2023-02-17T03:27:17;100643.22;;;4.56;83.10
75536;BME280;64119;52.070;20.804;2023-02-17T03:29:45;100644.94;;;4.54;82.99
75536;BME280;64119;52.070;20.804;2023-02-17T03:32:13;100644.80;;;4.52;83.30
75536;BME280;64119;52.070;20.804;2023-02-17T03:34:40;100643.95;;;4.50;83.56
75536;BME280;64119;52.070;20.804;2023-02-17T03:37:08;100642.02;;;4.48;83.80
75536;BME280;64119;52.070;20.804;2023-02-17T03:39:36;100642.25;;;4.45;83.97
75536;BME280;64119;52.070;20.804;2023-02-17T03:42:04;100641.45;;;4.45;83.92
75536;BME280;64119;52.070;20.804;2023-02-17T03:44:32;100642.19;;;4.42;83.95
75536;BME280;64119;52.070;20.804;2023-02-17T03:46:59;100642.27;;;4.41;84.00
75536;BME280;64119;52.070;20.804;2023-02-17T03:49:27;100641.13;;;4.39;84.47
75536;BME280;64119;52.070;20.804;2023-02-17T03:51:55;100642.42;;;4.38;84.59
75536;BME280;64119;52.070;20.804;2023-02-17T03:54:25;100644.39;;;4.38;84.59
75536;BME280;64119;52.070;20.804;2023-02-17T03:56:53;100639.95;;;4.38;84.33
75536;BME280;64119;52.070;20.804;2023-02-17T03:59:22;100634.14;;;4.37;84.78
75536;BME280;64119;52.070;20.804;2023-02-17T04:01:49;100626.60;;;4.35;85.53
75536;BME280;64119;52.070;20.804;2023-02-17T04:04:17;100633.92;;;4.37;85.18
75536;BME280;64119;52.070;20.804;2023-02-17T04:06:45;100632.21;;;4.35;85.33
75536;BME280;64119;52.070;20.804;2023-02-17T04:09:13;100629.86;;;4.34;85.18
75536;BME280;64119;52.070;20.804;2023-02-17T04:11:41;100624.83;;;4.35;85.20
75536;BME280;64119;52.070;20.804;2023-02-17T04:14:09;100624.80;;;4.36;85.04
75536;BME280;64119;52.070;20.804;2023-02-17T04:16:37;100629.96;;;4.36;85.44
75536;BME280;64119;52.070;20.804;2023-02-17T04:19:06;100619.05;;;4.35;85.60
75536;BME280;64119;52.070;20.804;2023-02-17T04:21:34;100619.27;;;4.35;85.84
75536;BME280;64119;52.070;20.804;2023-02-17T04:24:02;100622.48;;;4.34;85.98
75536;BME280;64119;52.070;20.804;2023-02-17T04:26:30;100625.48;;;4.34;85.88
75536;BME280;64119;52.070;20.804;2023-02-17T04:28:58;100635.22;;;4.34;85.60
75536;BME280;64119;52.070;20.804;2023-02-17T04:31:26;100632.35;;;4.33;86.08
75536;BME280;64119;52.070;20.804;2023-02-17T04:33:54;100630.02;;;4.34;86.06
75536;BME280;64119;52.070;20.804;2023-02-17T04:36:22;100628.00;;;4.33;86.57
75536;BME280;64119;52.070;20.804;2023-02-17T04:38:50;100608.69;;;4.32;87.14
75536;BME280;64119;52.070;20.804;2023-02-17T04:41:18;100594.00;;;4.31;87.01
75536;BME280;64119;52.070;20.804;2023-02-17T04:43:45;100603.38;;;4.33;86.29
75536;BME280;64119;52.070;20.804;2023-02-17T04:46:13;100606.79;;;4.34;86.31
75536;BME280;64119;52.070;20.804;2023-02-17T04:48:41;100611.95;;;4.33;86.31
75536;BME280;64119;52.070;20.804;2023-02-17T04:51:09;100603.02;;;4.31;86.77
75536;BME280;64119;52.070;20.804;2023-02-17T04:53:37;100586.94;;;4.29;87.04
75536;BME280;64119;52.070;20.804;2023-02-17T04:56:05;100591.73;;;4.28;86.51
75536;BME280;64119;52.070;20.804;2023-02-17T04:58:34;100594.23;;;4.26;87.20
75536;BME280;64119;52.070;20.804;2023-02-17T05:01:03;100592.02;;;4.25;87.15
75536;BME280;64119;52.070;20.804;2023-02-17T05:03:30;100584.19;;;4.24;87.45
75536;BME280;64119;52.070;20.804;2023-02-17T05:05:58;100580.48;;;4.25;86.92
75536;BME280;64119;52.070;20.804;2023-02-17T05:08:26;100585.44;;;4.24;86.97
75536;BME280;64119;52.070;20.804;2023-02-17T05:10:54;100587.84;;;4.23;87.28
75536;BME280;64119;52.070;20.804;2023-02-17T05:13:22;100582.13;;;4.22;87.11
75536;BME280;64119;52.070;20.804;2023-02-17T05:15:49;100581.69;;;4.21;87.55
75536;BME280;64119;52.070;20.804;2023-02-17T05:18:17;100584.69;;;4.21;87.43
75536;BME280;64119;52.070;20.804;2023-02-17T05:20:45;100577.05;;;4.20;87.41
75536;BME280;64119;52.070;20.804;2023-02-17T05:23:13;100572.05;;;4.19;87.48
75536;BME280;64119;52.070;20.804;2023-02-17T05:25:41;100569.29;;;4.19;87.99
75536;BME280;64119;52.070;20.804;2023-02-17T05:28:09;100562.44;;;4.17;88.08
75536;BME280;64119;52.070;20.804;2023-02-17T05:30:36;100560.77;;;4.20;87.53
75536;BME280;64119;52.070;20.804;2023-02-17T05:33:04;100555.90;;;4.20;87.71
75536;BME280;64119;52.070;20.804;2023-02-17T05:35:33;100553.63;;;4.20;87.52
75536;BME280;64119;52.070;20.804;2023-02-17T05:38:01;100556.42;;;4.20;87.65
75536;BME280;64119;52.070;20.804;2023-02-17T05:40:29;100559.70;;;4.22;87.91
75536;BME280;64119;52.070;20.804;2023-02-17T05:42:57;100560.13;;;4.20;87.98
75536;BME280;64119;52.070;20.804;2023-02-17T05:45:25;100562.65;;;4.19;87.98
75536;BME280;64119;52.070;20.804;2023-02-17T05:47:53;100565.88;;;4.20;87.68
75536;BME280;64119;52.070;20.804;2023-02-17T05:50:21;100558.59;;;4.17;88.02
75536;BME280;64119;52.070;20.804;2023-02-17T05:52:48;100557.02;;;4.17;87.84
75536;BME280;64119;52.070;20.804;2023-02-17T05:55:16;100558.37;;;4.16;87.84
75536;BME280;64119;52.070;20.804;2023-02-17T05:57:44;100563.77;;;4.15;87.94
75536;BME280;64119;52.070;20.804;2023-02-17T06:00:12;100560.61;;;4.15;87.87
75536;BME280;64119;52.070;20.804;2023-02-17T06:02:40;100561.27;;;4.11;87.80
75536;BME280;64119;52.070;20.804;2023-02-17T06:05:08;100555.40;;;4.08;88.13
75536;BME280;64119;52.070;20.804;2023-02-17T06:07:36;100556.59;;;4.07;87.82
75536;BME280;64119;52.070;20.804;2023-02-17T06:10:05;100558.08;;;4.06;88.00
75536;BME280;64119;52.070;20.804;2023-02-17T06:12:33;100554.72;;;4.04;88.02
75536;BME280;64119;52.070;20.804;2023-02-17T06:15:01;100554.56;;;4.02;87.94
75536;BME280;64119;52.070;20.804;2023-02-17T06:17:29;100555.01;;;4.03;87.79
75536;BME280;64119;52.070;20.804;2023-02-17T06:19:57;100555.48;;;4.02;87.80
75536;BME280;64119;52.070;20.804;2023-02-17T06:22:25;100556.95;;;4.01;87.76
75536;BME280;64119;52.070;20.804;2023-02-17T06:24:53;100552.36;;;4.00;87.64
75536;BME280;64119;52.070;20.804;2023-02-17T06:27:21;100549.91;;;3.98;87.55
75536;BME280;64119;52.070;20.804;2023-02-17T06:29:49;100552.50;;;3.96;87.54
75536;BME280;64119;52.070;20.804;2023-02-17T06:32:17;100552.42;;;3.97;87.47
75536;BME280;64119;52.070;20.804;2023-02-17T06:34:45;100546.45;;;3.97;87.58
75536;BME280;64119;52.070;20.804;2023-02-17T06:37:13;100551.27;;;3.98;87.38
75536;BME280;64119;52.070;20.804;2023-02-17T06:39:41;100545.59;;;3.97;87.65
75536;BME280;64119;52.070;20.804;2023-02-17T06:42:08;100543.20;;;3.98;87.55
75536;BME280;64119;52.070;20.804;2023-02-17T06:44:36;100539.43;;;4.01;87.32
75536;BME280;64119;52.070;20.804;2023-02-17T06:47:04;100538.84;;;4.02;87.21
75536;BME280;64119;52.070;20.804;2023-02-17T06:49:32;100542.79;;;4.04;87.47
75536;BME280;64119;52.070;20.804;2023-02-17T06:52:00;100535.63;;;4.07;87.29
75536;BME280;64119;52.070;20.804;2023-02-17T06:54:28;100532.69;;;4.08;87.09
75536;BME280;64119;52.070;20.804;2023-02-17T06:56:56;100528.32;;;4.10;87.06
75536;BME280;64119;52.070;20.804;2023-02-17T06:59:24;100526.77;;;4.11;87.32
75536;BME280;64119;52.070;20.804;2023-02-17T07:01:51;100533.41;;;4.17;87.25
75536;BME280;64119;52.070;20.804;2023-02-17T07:04:19;100531.11;;;4.21;86.94
75536;BME280;64119;52.070;20.804;2023-02-17T07:06:48;100536.19;;;4.23;87.05
75536;BME280;64119;52.070;20.804;2023-02-17T07:09:15;100541.34;;;4.28;87.18
75536;BME280;64119;52.070;20.804;2023-02-17T07:11:43;100532.20;;;4.34;86.96
75536;BME280;64119;52.070;20.804;2023-02-17T07:14:11;100519.02;;;4.41;86.94
75536;BME280;64119;52.070;20.804;2023-02-17T07:16:39;100522.90;;;4.48;86.72
75536;BME280;64119;52.070;20.804;2023-02-17T07:19:07;100519.19;;;4.56;86.40
75536;BME280;64119;52.070;20.804;2023-02-17T07:21:35;100513.59;;;4.61;86.27
75536;BME280;64119;52.070;20.804;2023-02-17T07:24:03;100520.61;;;4.65;85.89
75536;BME280;64119;52.070;20.804;2023-02-17T07:26:34;100530.89;;;4.69;86.05
75536;BME280;64119;52.070;20.804;2023-02-17T07:29:03;100530.21;;;4.74;86.05
75536;BME280;64119;52.070;20.804;2023-02-17T07:31:32;100528.79;;;4.82;85.99
75536;BME280;64119;52.070;20.804;2023-02-17T07:34:03;100517.31;;;4.88;85.53
75536;BME280;64119;52.070;20.804;2023-02-17T07:36:31;100511.81;;;4.94;85.14
75536;BME280;64119;52.070;20.804;2023-02-17T07:38:59;100504.83;;;4.99;85.33
75536;BME280;64119;52.070;20.804;2023-02-17T07:41:26;100503.45;;;5.07;85.06
75536;BME280;64119;52.070;20.804;2023-02-17T07:44:03;100504.83;;;5.16;84.94
75536;BME280;64119;52.070;20.804;2023-02-17T07:46:32;100505.69;;;5.29;84.77
75536;BME280;64119;52.070;20.804;2023-02-17T07:49:00;100507.90;;;5.37;84.07
75536;BME280;64119;52.070;20.804;2023-02-17T07:51:28;100506.73;;;5.42;84.18
75536;BME280;64119;52.070;20.804;2023-02-17T07:53:56;100505.10;;;5.51;83.99
75536;BME280;64119;52.070;20.804;2023-02-17T07:56:24;100502.81;;;5.56;83.91
75536;BME280;64119;52.070;20.804;2023-02-17T07:58:53;100510.33;;;5.65;83.54
75536;BME280;64119;52.070;20.804;2023-02-17T08:01:23;100507.88;;;5.70;83.56
75536;BME280;64119;52.070;20.804;2023-02-17T08:03:51;100501.37;;;5.76;83.06
75536;BME280;64119;52.070;20.804;2023-02-17T08:06:21;100503.20;;;5.78;83.06
75536;BME280;64119;52.070;20.804;2023-02-17T08:08:50;100503.20;;;5.81;83.02
75536;BME280;64119;52.070;20.804;2023-02-17T08:11:38;100500.77;;;5.85;82.73
75536;BME280;64119;52.070;20.804;2023-02-17T08:14:28;100498.15;;;5.90;82.81
75536;BME280;64119;52.070;20.804;2023-02-17T08:16:56;100493.68;;;5.93;82.84
75536;BME280;64119;52.070;20.804;2023-02-17T08:19:25;100492.92;;;5.97;82.34
75536;BME280;64119;52.070;20.804;2023-02-17T08:22:06;100490.98;;;6.00;82.56
75536;BME280;64119;52.070;20.804;2023-02-17T08:24:33;100493.02;;;6.04;82.57
75536;BME280;64119;52.070;20.804;2023-02-17T08:27:01;100487.67;;;6.08;82.51
75536;BME280;64119;52.070;20.804;2023-02-17T08:29:29;100484.27;;;6.11;82.32
75536;BME280;64119;52.070;20.804;2023-02-17T08:31:57;100486.39;;;6.14;82.44
75536;BME280;64119;52.070;20.804;2023-02-17T08:34:25;100484.67;;;6.19;82.02
75536;BME280;64119;52.070;20.804;2023-02-17T08:36:53;100481.86;;;6.22;82.12
75536;BME280;64119;52.070;20.804;2023-02-17T08:39:20;100482.34;;;6.26;82.14
75536;BME280;64119;52.070;20.804;2023-02-17T08:41:48;100477.48;;;6.30;81.60
75536;BME280;64119;52.070;20.804;2023-02-17T08:44:17;100470.48;;;6.32;81.51
75536;BME280;64119;52.070;20.804;2023-02-17T08:46:46;100471.40;;;6.31;81.33
75536;BME280;64119;52.070;20.804;2023-02-17T08:49:17;100476.59;;;6.34;81.17
75536;BME280;64119;52.070;20.804;2023-02-17T08:51:45;100481.09;;;6.36;81.37
75536;BME280;64119;52.070;20.804;2023-02-17T08:54:14;100477.10;;;6.39;81.19
75536;BME280;64119;52.070;20.804;2023-02-17T08:56:42;100479.55;;;6.41;81.24
75536;BME280;64119;52.070;20.804;2023-02-17T08:59:11;100469.79;;;6.40;81.14
75536;BME280;64119;52.070;20.804;2023-02-17T09:01:40;100471.60;;;6.39;81.11
75536;BME280;64119;52.070;20.804;2023-02-17T09:04:10;100467.59;;;6.39;80.99
75536;BME280;64119;52.070;20.804;2023-02-17T09:06:45;100465.90;;;6.39;80.67
75536;BME280;64119;52.070;20.804;2023-02-17T09:09:15;100467.64;;;6.39;80.49
75536;BME280;64119;52.070;20.804;2023-02-17T09:11:44;100467.11;;;6.40;80.75
75536;BME280;64119;52.070;20.804;2023-02-17T09:14:12;100469.37;;;6.44;80.41
75536;BME280;64119;52.070;20.804;2023-02-17T09:16:40;100472.17;;;6.45;80.72
75536;BME280;64119;52.070;20.804;2023-02-17T09:19:08;100473.41;;;6.49;80.57
75536;BME280;64119;52.070;20.804;2023-02-17T09:21:36;100470.70;;;6.56;80.15
75536;BME280;64119;52.070;20.804;2023-02-17T09:24:04;100467.45;;;6.60;80.22
75536;BME280;64119;52.070;20.804;2023-02-17T09:26:32;100462.86;;;6.65;80.09
75536;BME280;64119;52.070;20.804;2023-02-17T09:29:03;100459.48;;;6.70;80.13
75536;BME280;64119;52.070;20.804;2023-02-17T09:31:33;100457.67;;;6.74;80.42
75536;BME280;64119;52.070;20.804;2023-02-17T09:34:02;100454.23;;;6.79;80.60
75536;BME280;64119;52.070;20.804;2023-02-17T09:36:35;100452.19;;;6.85;80.68
75536;BME280;64119;52.070;20.804;2023-02-17T09:39:04;100452.89;;;6.89;80.47
75536;BME280;64119;52.070;20.804;2023-02-17T09:44:08;100446.33;;;6.88;80.72
75536;BME280;64119;52.070;20.804;2023-02-17T09:46:44;100440.36;;;6.86;81.00
75536;BME280;64119;52.070;20.804;2023-02-17T09:49:37;100435.84;;;6.82;80.79
75536;BME280;64119;52.070;20.804;2023-02-17T09:55:00;100428.30;;;6.74;81.49
75536;BME280;64119;52.070;20.804;2023-02-17T09:57:51;100426.95;;;6.70;81.80
75536;BME280;64119;52.070;20.804;2023-02-17T10:00:44;100422.42;;;6.66;82.10
75536;BME280;64119;52.070;20.804;2023-02-17T10:03:17;100416.88;;;6.58;82.80
75536;BME280;64119;52.070;20.804;2023-02-17T10:08:53;100408.34;;;6.48;83.12
75536;BME280;64119;52.070;20.804;2023-02-17T10:14:18;100406.15;;;6.42;83.68
75536;BME280;64119;52.070;20.804;2023-02-17T10:17:02;100405.46;;;6.40;83.95
75536;BME280;64119;52.070;20.804;2023-02-17T10:19:36;100403.36;;;6.35;84.17
75536;BME280;64119;52.070;20.804;2023-02-17T10:22:11;100400.60;;;6.31;84.53
75536;BME280;64119;52.070;20.804;2023-02-17T10:24:41;100405.65;;;6.25;84.72
75536;BME280;64119;52.070;20.804;2023-02-17T10:32:51;100403.58;;;6.20;85.46
75536;BME280;64119;52.070;20.804;2023-02-17T10:35:35;100401.86;;;6.20;85.44
75536;BME280;64119;52.070;20.804;2023-02-17T10:40:54;100389.52;;;6.18;85.86
75536;BME280;64119;52.070;20.804;2023-02-17T10:43:28;100385.95;;;6.21;85.67
75536;BME280;64119;52.070;20.804;2023-02-17T10:46:04;100376.11;;;6.24;85.68
75536;BME280;64119;52.070;20.804;2023-02-17T10:51:06;100364.98;;;6.26;85.83
75536;BME280;64119;52.070;20.804;2023-02-17T10:53:37;100358.73;;;6.22;86.15
75536;BME280;64119;52.070;20.804;2023-02-17T10:58:40;100350.57;;;6.16;86.77
75536;BME280;64119;52.070;20.804;2023-02-17T11:01:13;100339.61;;;6.19;87.12
75536;BME280;64119;52.070;20.804;2023-02-17T11:03:40;100334.54;;;6.17;87.41
75536;BME280;64119;52.070;20.804;2023-02-17T11:06:21;100329.44;;;6.19;87.35
75536;BME280;64119;52.070;20.804;2023-02-17T11:09:14;100321.79;;;6.23;87.39
75536;BME280;64119;52.070;20.804;2023-02-17T11:11:50;100316.51;;;6.21;88.00
75536;BME280;64119;52.070;20.804;2023-02-17T11:14:25;100311.18;;;6.25;87.61
75536;BME280;64119;52.070;20.804;2023-02-17T11:17:03;100304.96;;;6.29;87.92
75536;BME280;64119;52.070;20.804;2023-02-17T11:19:39;100298.23;;;6.31;88.01
75536;BME280;64119;52.070;20.804;2023-02-17T11:22:31;100295.08;;;6.36;88.02
75536;BME280;64119;52.070;20.804;2023-02-17T11:25:03;100287.96;;;6.30;88.49
75536;BME280;64119;52.070;20.804;2023-02-17T11:27:33;100283.80;;;6.33;88.64
75536;BME280;64119;52.070;20.804;2023-02-17T11:30:14;100278.54;;;6.38;88.81
75536;BME280;64119;52.070;20.804;2023-02-17T11:32:42;100272.98;;;6.42;88.73
75536;BME280;64119;52.070;20.804;2023-02-17T11:37:51;100257.46;;;6.41;88.74
75536;BME280;64119;52.070;20.804;2023-02-17T11:40:25;100248.73;;;6.44;88.52
75536;BME280;64119;52.070;20.804;2023-02-17T11:42:58;100246.82;;;6.49;88.67
75536;BME280;64119;52.070;20.804;2023-02-17T11:45:31;100244.73;;;6.48;88.59
75536;BME280;64119;52.070;20.804;2023-02-17T11:51:30;100232.83;;;6.51;88.76
75536;BME280;64119;52.070;20.804;2023-02-17T11:54:25;100230.30;;;6.56;88.84
75536;BME280;64119;52.070;20.804;2023-02-17T12:00:09;100221.24;;;6.66;88.56
75536;BME280;64119;52.070;20.804;2023-02-17T12:11:29;100190.33;;;6.74;88.67
75536;BME280;64119;52.070;20.804;2023-02-17T12:14:31;100186.39;;;6.77;88.68
75536;BME280;64119;52.070;20.804;2023-02-17T12:19:56;100155.83;;;6.84;88.54
75536;BME280;64119;52.070;20.804;2023-02-17T12:22:40;100150.09;;;6.85;88.52
75536;BME280;64119;52.070;20.804;2023-02-17T12:28:26;100138.90;;;6.92;88.29
75536;BME280;64119;52.070;20.804;2023-02-17T12:36:17;100104.24;;;7.03;88.35
75536;BME280;64119;52.070;20.804;2023-02-17T12:38:53;100097.16;;;7.06;88.49
75536;BME280;64119;52.070;20.804;2023-02-17T12:44:01;100100.10;;;7.11;88.69
75536;BME280;64119;52.070;20.804;2023-02-17T12:46:45;100093.07;;;7.10;88.49
75536;BME280;64119;52.070;20.804;2023-02-17T12:52:13;100085.59;;;7.14;88.63
75536;BME280;64119;52.070;20.804;2023-02-17T12:54:49;100078.64;;;7.13;88.80
75536;BME280;64119;52.070;20.804;2023-02-17T12:57:23;100080.02;;;7.15;88.73
75536;BME280;64119;52.070;20.804;2023-02-17T12:59:55;100080.42;;;7.14;89.03
75536;BME280;64119;52.070;20.804;2023-02-17T13:02:25;100082.17;;;7.13;89.07
75536;BME280;64119;52.070;20.804;2023-02-17T13:04:59;100075.14;;;7.13;89.07
75536;BME280;64119;52.070;20.804;2023-02-17T13:08:00;100071.78;;;7.13;89.17
75536;BME280;64119;52.070;20.804;2023-02-17T13:10:36;100067.98;;;7.14;89.50
75536;BME280;64119;52.070;20.804;2023-02-17T13:16:06;100055.02;;;7.10;89.65
75536;BME280;64119;52.070;20.804;2023-02-17T13:18:36;100047.10;;;7.12;89.74
75536;BME280;64119;52.070;20.804;2023-02-17T13:24:05;100035.86;;;7.10;90.12
75536;BME280;64119;52.070;20.804;2023-02-17T13:26:40;100028.56;;;7.11;90.05
75536;BME280;64119;52.070;20.804;2023-02-17T13:37:14;100020.90;;;7.09;90.39
75536;BME280;64119;52.070;20.804;2023-02-17T13:39:43;100017.94;;;7.07;90.70
75536;BME280;64119;52.070;20.804;2023-02-17T13:42:34;100019.29;;;7.09;90.27
75536;BME280;64119;52.070;20.804;2023-02-17T13:47:51;100014.62;;;7.12;90.41
75536;BME280;64119;52.070;20.804;2023-02-17T13:50:33;100009.52;;;7.13;90.35
75536;BME280;64119;52.070;20.804;2023-02-17T13:53:01;100011.77;;;7.13;90.29
75536;BME280;64119;52.070;20.804;2023-02-17T13:55:30;100007.23;;;7.12;90.33
75536;BME280;64119;52.070;20.804;2023-02-17T13:57:58;99999.84;;;7.13;90.40
75536;BME280;64119;52.070;20.804;2023-02-17T14:00:27;99996.23;;;7.15;90.42
75536;BME280;64119;52.070;20.804;2023-02-17T14:02:58;99989.27;;;7.16;90.59
75536;BME280;64119;52.070;20.804;2023-02-17T14:07:58;99983.23;;;7.15;90.47
75536;BME280;64119;52.070;20.804;2023-02-17T14:10:30;99983.59;;;7.17;90.79
75536;BME280;64119;52.070;20.804;2023-02-17T14:12:58;99977.70;;;7.16;90.63
75536;BME280;64119;52.070;20.804;2023-02-17T14:15:27;99969.55;;;7.17;90.91
75536;BME280;64119;52.070;20.804;2023-02-17T14:17:55;99968.76;;;7.16;91.25
75536;BME280;64119;52.070;20.804;2023-02-17T14:20:32;99963.08;;;7.13;91.17
75536;BME280;64119;52.070;20.804;2023-02-17T14:23:07;99955.61;;;7.11;91.21
75536;BME280;64119;52.070;20.804;2023-02-17T14:25:40;99952.57;;;7.11;91.20
75536;BME280;64119;52.070;20.804;2023-02-17T14:28:37;99942.67;;;7.13;91.18
75536;BME280;64119;52.070;20.804;2023-02-17T14:31:09;99937.42;;;7.13;91.28
75536;BME280;64119;52.070;20.804;2023-02-17T14:33:38;99933.16;;;7.11;91.24
75536;BME280;64119;52.070;20.804;2023-02-17T14:36:06;99923.98;;;7.09;91.51
75536;BME280;64119;52.070;20.804;2023-02-17T14:38:41;99915.08;;;7.09;91.33
75536;BME280;64119;52.070;20.804;2023-02-17T14:41:09;99908.65;;;7.11;91.30
75536;BME280;64119;52.070;20.804;2023-02-17T14:43:37;99903.85;;;7.12;91.24
75536;BME280;64119;52.070;20.804;2023-02-17T14:46:04;99896.89;;;7.09;91.39
75536;BME280;64119;52.070;20.804;2023-02-17T14:48:32;99891.86;;;7.11;91.31
75536;BME280;64119;52.070;20.804;2023-02-17T14:51:00;99885.71;;;7.13;91.40
75536;BME280;64119;52.070;20.804;2023-02-17T14:53:31;99877.16;;;7.11;91.35
75536;BME280;64119;52.070;20.804;2023-02-17T14:58:48;99862.30;;;7.12;91.29
75536;BME280;64119;52.070;20.804;2023-02-17T15:01:17;99861.73;;;7.11;91.62
75536;BME280;64119;52.070;20.804;2023-02-17T15:03:45;99854.92;;;7.12;91.38
75536;BME280;64119;52.070;20.804;2023-02-17T15:06:22;99848.68;;;7.11;91.64
75536;BME280;64119;52.070;20.804;2023-02-17T15:08:55;99844.23;;;7.12;91.67
75536;BME280;64119;52.070;20.804;2023-02-17T15:11:33;99837.67;;;7.11;91.82